Time;durP1;ratioP1;P1;durP2;ratioP2;P2;SDS_P1;SDS_P2;PMS_P1;PMS_P2;Temp;Humidity;BMP_temperature;BMP_pressure;BME280_temperature;BME280_humidity;BME280_pressure;Samples;Min_cycle;Max_cycle;Signal;HPM_P1;HPM_P2
2022/06/27 20:11:29;;;;;;;;;;;;;;;27.68;36.08;100340.42;1794002;78;20233;-82
2022/06/27 20:13:57;;;;;;;;;;;;;;;27.58;36.22;100339.13;1767240;80;20586;-83
2022/06/27 20:16:27;;;;;;;;;;;;;;;27.53;36.35;100339.97;1765420;79;22314;-85
2022/06/27 20:18:53;;;;;;;;;;;;;;;27.50;36.51;100344.64;1762700;79;20189;-86
2022/06/27 20:21:19;;;;;;;;;;;;;;;27.47;36.65;100343.02;1763784;79;20724;-85
2022/06/27 20:23:45;;;;;;;;;;;;;;;27.45;36.78;100335.62;1772953;80;20180;-84
2022/06/27 20:26:11;;;;;;;;;;;;;;;27.43;36.91;100344.11;1760890;79;20238;-84
2022/06/27 20:28:37;;;;;;;;;;;;;;;27.43;37.01;100335.06;1698268;83;21778;-85
2022/06/27 20:31:03;;;;;;;;;;;;;;;27.43;37.10;100335.06;1693879;83;20197;-85
2022/06/27 20:33:29;;;;;;;;;;;;;;;27.39;37.21;100338.91;1700110;83;20753;-86
2022/06/27 20:35:55;;;;;;;;;;;;;;;27.36;37.30;100338.11;1704142;82;20200;-85
2022/06/27 20:38:21;;;;;;;;;;;;;;;27.35;37.40;100337.02;1698885;82;20503;-84
2022/06/27 20:40:46;;;;;;;;;;;;;;;27.35;37.48;100337.84;1731120;81;21805;-83
2022/06/27 20:43:12;;;;;;;;;;;;;;;27.37;37.58;100330.72;1695558;83;20208;-83
2022/06/27 20:45:38;;;;;;;;;;;;;;;27.34;37.64;100333.45;1721224;81;20292;-83
2022/06/27 20:48:05;;;;;;;;;;;;;;;27.29;37.73;100335.69;1706172;82;20171;-84
2022/06/27 20:50:31;;;;;;;;;;;;;;;27.28;37.82;100329.93;1699669;83;20147;-83
2022/06/27 20:53:00;;;;;;;;;;;;;;;27.28;37.90;100329.11;1721875;81;21819;-83
2022/06/27 20:55:26;;;;;;;;;;;;;;;27.25;37.99;100323.66;1699717;83;20700;-83
2022/06/27 20:57:52;;;;;;;;;;;;;;;27.26;38.07;100321.19;1692160;83;20517;-83
2022/06/27 21:00:20;;;;;;;;;;;;;;;27.26;38.14;100315.72;1729680;81;20183;-83
2022/06/27 21:02:46;;;;;;;;;;;;;;;27.21;38.23;100315.73;1714573;82;20823;-83
2022/06/27 21:05:12;;;;;;;;;;;;;;;27.15;38.31;100318.23;1705000;82;21389;-83
2022/06/27 21:13:07;;;;;;;;;;;;;;;27.10;38.58;100318.23;1691544;83;20178;-83
2022/06/27 21:15:33;;;;;;;;;;;;;;;27.06;38.68;100315.78;1696304;83;20585;-83
2022/06/27 21:17:59;;;;;;;;;;;;;;;26.99;38.75;100313.90;1680048;84;21801;-80
2022/06/27 21:20:25;;;;;;;;;;;;;;;26.97;38.84;100313.38;1682423;83;20187;-80
2022/06/27 21:22:51;;;;;;;;;;;;;;;26.97;38.91;100309.27;1683880;85;20581;-79
2022/06/27 21:25:18;;;;;;;;;;;;;;;27.00;38.95;100311.98;1682468;85;20239;-79
2022/06/27 21:27:43;;;;;;;;;;;;;;;27.01;38.99;100312.27;1683937;83;20503;-77
2022/06/27 21:30:10;;;;;;;;;;;;;;;27.03;39.05;100315.53;1682993;84;22364;-78
2022/06/27 21:32:36;;;;;;;;;;;;;;;27.05;39.04;100315.54;1683824;85;20218;-77
2022/06/27 21:35:02;;;;;;;;;;;;;;;27.07;39.10;100311.95;1682639;83;20318;-77
2022/06/27 21:37:27;;;;;;;;;;;;;;;27.06;39.17;100310.86;1681235;83;20710;-77
2022/06/27 21:39:53;;;;;;;;;;;;;;;27.01;39.27;100306.24;1683718;83;20182;-77
2022/06/27 21:42:19;;;;;;;;;;;;;;;26.93;39.36;100305.45;1693127;83;22595;-76
2022/06/27 21:44:45;;;;;;;;;;;;;;;26.84;39.47;100305.77;1695180;83;20285;-76
2022/06/27 21:47:11;;;;;;;;;;;;;;;26.77;39.55;100306.58;1687612;83;20214;-76
2022/06/27 21:49:36;;;;;;;;;;;;;;;26.71;39.65;100314.52;1684137;83;21096;-76
2022/06/27 21:54:48;;;;;;;;;;;;;;;26.57;39.89;100321.13;1693163;83;21843;-77
2022/06/27 21:57:14;;;;;;;;;;;;;;;26.46;40.00;100326.33;1711227;83;20813;-77
2022/06/27 21:59:40;;;;;;;;;;;;;;;26.37;40.15;100321.70;1683711;84;20206;-77
2022/06/27 22:02:06;;;;;;;;;;;;;;;26.30;40.28;100327.46;1686701;83;20207;-78
2022/06/27 22:04:32;;;;;;;;;;;;;;;26.24;40.42;100334.86;1682785;83;20385;-78
2022/06/27 22:06:59;;;;;;;;;;;;;;;26.21;40.56;100336.75;1682871;85;22303;-78
2022/06/27 22:09:25;;;;;;;;;;;;;;;26.17;40.69;100330.73;1683599;83;20468;-78
2022/06/27 22:11:51;;;;;;;;;;;;;;;26.14;40.81;100337.55;1729058;82;20199;-78
2022/06/27 22:14:16;;;;;;;;;;;;;;;26.10;40.93;100339.21;1734141;82;20159;-78
2022/06/27 22:16:42;;;;;;;;;;;;;;;26.06;41.00;100346.31;1733905;82;20783;-78
2022/06/27 22:19:08;;;;;;;;;;;;;;;26.05;41.12;100341.11;1733519;81;21745;-78
2022/06/27 22:21:37;;;;;;;;;;;;;;;26.07;41.18;100352.03;1733241;82;20399;-78
2022/06/27 22:24:03;;;;;;;;;;;;;;;26.11;41.23;100352.30;1734588;82;20202;-78
2022/06/27 22:26:30;;;;;;;;;;;;;;;26.14;41.29;100343.02;1735060;82;20165;-78
2022/06/27 22:28:56;;;;;;;;;;;;;;;26.17;41.36;100356.20;1733314;82;20163;-78
2022/06/27 22:31:25;;;;;;;;;;;;;;;26.15;41.42;100365.16;1734679;82;21607;-78
2022/06/27 22:33:51;;;;;;;;;;;;;;;26.13;41.52;100370.09;1734351;82;20500;-78
2022/06/27 22:36:17;;;;;;;;;;;;;;;26.11;41.54;100370.91;1734045;82;20202;-78
2022/06/27 22:38:43;;;;;;;;;;;;;;;26.11;41.60;100370.08;1733665;82;20145;-78
2022/06/27 22:41:09;;;;;;;;;;;;;;;26.11;41.65;100363.24;1734166;82;20763;-78
2022/06/27 22:43:36;;;;;;;;;;;;;;;26.10;41.69;100355.61;1733250;82;22431;-77
2022/06/27 22:46:01;;;;;;;;;;;;;;;26.14;41.70;100359.41;1713753;82;20182;-77
2022/06/27 22:48:27;;;;;;;;;;;;;;;26.17;41.76;100365.77;1734052;82;20175;-76
2022/06/27 22:50:53;;;;;;;;;;;;;;;26.19;41.80;100360.83;1733640;82;20574;-76
2022/06/27 22:53:19;;;;;;;;;;;;;;;26.20;41.85;100362.48;1734831;82;20159;-76
2022/06/27 22:55:46;;;;;;;;;;;;;;;26.20;41.90;100355.64;1734385;81;21566;-76
2022/06/27 22:58:12;;;;;;;;;;;;;;;26.19;41.92;100362.19;1733158;82;20167;-76
2022/06/27 23:00:38;;;;;;;;;;;;;;;26.16;41.97;100359.98;1734187;82;20167;-78
2022/06/27 23:03:04;;;;;;;;;;;;;;;26.11;42.01;100368.17;1734431;82;20445;-78
2022/06/27 23:05:30;;;;;;;;;;;;;;;26.09;42.08;100362.16;1734929;82;20250;-78
2022/06/27 23:07:56;;;;;;;;;;;;;;;26.05;42.13;100369.27;1732654;82;22270;-78
2022/06/27 23:10:22;;;;;;;;;;;;;;;26.02;42.19;100366.26;1733439;82;20219;-78
2022/06/27 23:12:48;;;;;;;;;;;;;;;26.00;42.28;100363.78;1728849;83;20231;-78
2022/06/27 23:15:14;;;;;;;;;;;;;;;25.97;42.33;100361.59;1719064;82;20243;-78
2022/06/27 23:17:40;;;;;;;;;;;;;;;25.98;42.37;100367.34;1728703;81;20764;-77
2022/06/27 23:20:08;;;;;;;;;;;;;;;25.95;42.41;100370.62;1731481;83;22302;-77
2022/06/27 23:22:35;;;;;;;;;;;;;;;25.91;42.48;100369.52;1718346;82;20606;-77
2022/06/27 23:25:00;;;;;;;;;;;;;;;25.87;42.54;100367.05;1726283;83;20454;-77
2022/06/27 23:27:26;;;;;;;;;;;;;;;25.84;42.62;100373.06;1730944;83;20163;-77
2022/06/27 23:29:52;;;;;;;;;;;;;;;25.82;42.67;100375.27;1718153;83;20787;-77
2022/06/27 23:32:18;;;;;;;;;;;;;;;25.80;42.75;100382.89;1729674;83;21561;-77
2022/06/27 23:34:44;;;;;;;;;;;;;;;25.78;42.81;100387.82;1730019;83;20242;-77
2022/06/27 23:37:15;;;;;;;;;;;;;;;25.74;42.87;100388.08;1730310;83;20260;-77
2022/06/27 23:39:37;;;;;;;;;;;;;;;25.70;42.92;100382.87;1731809;81;20156;-77
2022/06/27 23:42:04;;;;;;;;;;;;;;;25.66;43.01;100387.23;1731403;83;20168;-76
2022/06/27 23:44:30;;;;;;;;;;;;;;;25.62;43.09;100388.86;1729574;82;22705;-77
2022/06/27 23:46:55;;;;;;;;;;;;;;;25.56;43.19;100383.11;1730486;83;20275;-77
2022/06/27 23:49:21;;;;;;;;;;;;;;;25.51;43.28;100379.81;1731419;82;20258;-77
2022/06/27 23:51:47;;;;;;;;;;;;;;;25.48;43.35;100368.56;1719408;82;20659;-77
2022/06/27 23:54:14;;;;;;;;;;;;;;;25.44;43.44;100367.49;1725084;83;20781;-77
2022/06/27 23:56:41;;;;;;;;;;;;;;;25.40;43.51;100360.92;1727899;83;21553;-77
2022/06/27 23:59:06;;;;;;;;;;;;;;;25.32;43.64;100360.89;1729475;83;20187;-76
